createdAt,value
2022-11-08T00:00:58.706Z,100822.91
2022-11-08T00:03:30.491Z,100824.22
2022-11-08T00:06:17.696Z,100824.66
2022-11-08T00:09:06.499Z,100817.28
2022-11-08T00:11:54.404Z,100816.88
2022-11-08T00:14:24.407Z,100819.16
2022-11-08T00:16:54.335Z,100820.91
2022-11-08T00:19:24.093Z,100818.25
2022-11-08T00:21:53.837Z,100820.59
2022-11-08T00:24:23.958Z,100831.47
2022-11-08T00:26:53.569Z,100820.31
2022-11-08T00:29:23.515Z,100824.50
2022-11-08T00:31:54.714Z,100831.16
2022-11-08T00:34:23.528Z,100829.13
2022-11-08T00:36:53.992Z,100824.22
2022-11-08T00:39:23.578Z,100832.13
2022-11-08T00:41:53.431Z,100827.09
2022-11-08T00:44:23.211Z,100825.47
2022-11-08T00:46:54.057Z,100831.81
2022-11-08T00:49:24.424Z,100828.66
2022-11-08T00:51:54.145Z,100826.63
2022-11-08T00:54:24.314Z,100825.88
2022-11-08T00:56:54.235Z,100836.66
2022-11-08T00:59:23.836Z,100831.84
2022-11-08T01:01:53.789Z,100837.44
2022-11-08T01:04:23.933Z,100836.44
2022-11-08T01:06:53.762Z,100838.88
2022-11-08T01:09:23.740Z,100837.25
2022-11-08T01:11:53.622Z,100826.78
2022-11-08T01:14:23.404Z,100830.28
2022-11-08T01:16:53.305Z,100827.00
2022-11-08T01:19:23.120Z,100836.22
2022-11-08T01:21:53.027Z,100829.66
2022-11-08T01:24:22.785Z,100826.47
2022-11-08T01:26:52.553Z,100830.06
2022-11-08T01:29:22.239Z,100832.31
2022-11-08T01:31:52.232Z,100829.84
2022-11-08T01:34:22.163Z,100827.72
2022-11-08T01:36:51.943Z,100819.63
2022-11-08T01:39:21.764Z,100817.38
2022-11-08T01:41:51.553Z,100810.63
2022-11-08T01:44:22.369Z,100812.19
2022-11-08T01:46:52.002Z,100813.09
2022-11-08T01:49:34.374Z,100817.78
2022-11-08T01:52:33.507Z,100820.03
2022-11-08T01:55:21.357Z,100808.97
2022-11-08T01:58:21.720Z,100811.72
2022-11-08T02:00:53.155Z,100815.94
2022-11-08T02:03:22.997Z,100816.75
2022-11-08T02:05:51.444Z,100817.91
2022-11-08T02:08:44.975Z,100811.00
2022-11-08T02:11:18.811Z,100814.91
2022-11-08T02:13:49.037Z,100808.47
2022-11-08T02:16:19.112Z,100811.00
2022-11-08T02:18:50.252Z,100806.19
2022-11-08T02:21:44.368Z,100805.81
2022-11-08T02:24:15.594Z,100801.00
2022-11-08T02:26:47.386Z,100799.47
2022-11-08T02:29:36.423Z,100807.34
2022-11-08T02:32:06.805Z,100798.72
2022-11-08T02:34:58.214Z,100805.69
2022-11-08T02:37:29.000Z,100805.31
2022-11-08T02:39:59.005Z,100819.41
2022-11-08T02:42:29.106Z,100813.16
2022-11-08T02:44:59.226Z,100816.78
2022-11-08T02:47:29.315Z,100807.75
2022-11-08T02:49:59.372Z,100802.44
2022-11-08T02:52:29.540Z,100808.25
2022-11-08T02:54:59.505Z,100806.13
2022-11-08T02:57:33.013Z,100813.69
2022-11-08T03:00:03.951Z,100808.88
2022-11-08T03:02:33.972Z,100808.16
2022-11-08T03:05:04.515Z,100810.47
2022-11-08T03:07:37.482Z,100805.88
2022-11-08T03:10:07.905Z,100807.59
2022-11-08T03:12:39.139Z,100816.81
2022-11-08T03:15:13.813Z,100822.44
2022-11-08T03:17:44.585Z,100818.84
2022-11-08T03:20:14.713Z,100811.91
2022-11-08T03:22:46.192Z,100810.38
2022-11-08T03:25:16.401Z,100807.00
2022-11-08T03:27:46.392Z,100807.31
2022-11-08T03:30:16.597Z,100811.22
2022-11-08T03:32:47.776Z,100805.88
2022-11-08T03:35:18.028Z,100810.59
2022-11-08T03:37:58.554Z,100810.81
2022-11-08T03:40:29.222Z,100808.63
2022-11-08T03:42:59.270Z,100805.88
2022-11-08T03:45:31.146Z,100802.69
2022-11-08T03:48:01.164Z,100813.09
2022-11-08T03:50:31.384Z,100803.38
2022-11-08T03:53:01.449Z,100805.97
2022-11-08T03:55:32.073Z,100799.81
2022-11-08T03:58:02.089Z,100797.22
2022-11-08T04:00:32.224Z,100791.25
2022-11-08T04:03:04.221Z,100800.72
2022-11-08T04:05:34.294Z,100796.22
2022-11-08T04:08:06.187Z,100794.03
2022-11-08T04:10:37.029Z,100793.50
2022-11-08T04:13:27.819Z,100799.03
2022-11-08T04:15:58.584Z,100795.69
2022-11-08T04:18:47.374Z,100790.69
2022-11-08T04:21:20.049Z,100805.53
2022-11-08T04:23:52.969Z,100804.41
2022-11-08T04:26:22.981Z,100806.34
2022-11-08T04:28:53.063Z,100817.91
2022-11-08T04:31:23.094Z,100812.06
2022-11-08T04:33:51.199Z,100816.38
2022-11-08T04:36:21.307Z,100817.25
2022-11-08T04:38:51.471Z,100803.44
2022-11-08T04:41:27.337Z,100810.97
2022-11-08T04:43:57.328Z,100801.34
2022-11-08T04:46:30.163Z,100805.97
2022-11-08T04:49:01.001Z,100801.56
2022-11-08T04:51:34.236Z,100804.31
2022-11-08T04:54:06.381Z,100804.47
2022-11-08T04:56:36.388Z,100806.47
2022-11-08T04:59:11.931Z,100805.72
2022-11-08T05:01:42.874Z,100805.00
2022-11-08T05:04:12.939Z,100806.72
2022-11-08T05:06:42.830Z,100801.88
2022-11-08T05:09:12.549Z,100808.50
2022-11-08T05:11:42.341Z,100820.44
2022-11-08T05:14:12.212Z,100805.06
2022-11-08T05:16:41.950Z,100803.72
2022-11-08T05:19:13.321Z,100809.47
2022-11-08T05:22:02.095Z,100810.06
2022-11-08T05:24:32.093Z,100812.91
2022-11-08T05:27:01.917Z,100810.34
2022-11-08T05:29:31.910Z,100812.25
2022-11-08T05:32:01.633Z,100803.97
2022-11-08T05:34:31.610Z,100801.94
2022-11-08T05:37:01.341Z,100804.53
2022-11-08T05:39:32.351Z,100810.34
2022-11-08T05:42:05.287Z,100804.03
2022-11-08T05:44:35.538Z,100799.31
2022-11-08T05:47:05.266Z,100792.59
2022-11-08T05:49:35.207Z,100795.34
2022-11-08T05:52:05.371Z,100791.63
2022-11-08T05:54:35.311Z,100800.47
2022-11-08T05:57:05.135Z,100797.72
2022-11-08T05:59:35.083Z,100808.41
2022-11-08T06:02:05.023Z,100801.66
2022-11-08T06:04:35.192Z,100803.03
2022-11-08T06:07:05.210Z,100806.53
2022-11-08T06:09:34.935Z,100806.84
2022-11-08T06:12:07.070Z,100803.47
2022-11-08T06:14:37.355Z,100798.25
2022-11-08T06:17:07.147Z,100807.06
2022-11-08T06:19:36.946Z,100797.72
2022-11-08T06:22:07.442Z,100803.59
2022-11-08T06:24:37.230Z,100801.22
2022-11-08T06:27:07.192Z,100803.88
2022-11-08T06:29:36.906Z,100814.38
2022-11-08T06:32:06.724Z,100805.28
2022-11-08T06:34:37.652Z,100806.09
2022-11-08T06:37:07.593Z,100806.72
2022-11-08T06:39:41.177Z,100810.28
2022-11-08T06:42:14.139Z,100814.66
2022-11-08T06:44:44.307Z,100805.06
2022-11-08T06:47:16.852Z,100818.78
2022-11-08T06:49:47.161Z,100815.72
2022-11-08T06:52:17.132Z,100830.66
2022-11-08T06:54:47.077Z,100826.22
2022-11-08T06:57:17.029Z,100820.19
2022-11-08T06:59:47.018Z,100828.78
2022-11-08T07:02:17.261Z,100823.84
2022-11-08T07:04:44.899Z,100831.31
2022-11-08T07:07:14.626Z,100824.66
2022-11-08T07:09:44.707Z,100821.91
2022-11-08T07:12:15.339Z,100829.59
2022-11-08T07:14:44.545Z,100827.38
2022-11-08T07:17:13.562Z,100828.63
2022-11-08T07:19:43.339Z,100823.56
2022-11-08T07:22:15.911Z,100821.16
2022-11-08T07:24:45.901Z,100818.00
2022-11-08T07:27:15.640Z,100817.66
2022-11-08T07:29:45.295Z,100810.22
2022-11-08T07:32:14.988Z,100819.44
2022-11-08T07:34:44.822Z,100819.66
2022-11-08T07:37:14.475Z,100820.09
2022-11-08T07:39:44.193Z,100826.66
2022-11-08T07:42:15.714Z,100824.81
2022-11-08T07:44:44.262Z,100820.53
2022-11-08T07:47:14.210Z,100823.91
2022-11-08T07:49:43.873Z,100815.84
2022-11-08T07:52:16.403Z,100819.84
2022-11-08T07:54:46.525Z,100822.41
2022-11-08T07:57:16.038Z,100822.81
2022-11-08T07:59:45.915Z,100819.94
2022-11-08T08:02:16.365Z,100811.03
2022-11-08T08:04:46.483Z,100812.56
2022-11-08T08:07:16.492Z,100808.66
2022-11-08T08:09:45.924Z,100805.66
2022-11-08T08:12:16.173Z,100809.75
2022-11-08T08:14:46.133Z,100801.72
2022-11-08T08:17:15.818Z,100802.00
2022-11-08T08:19:45.643Z,100802.88
2022-11-08T08:22:15.367Z,100796.63
2022-11-08T08:24:45.276Z,100793.47
2022-11-08T08:27:17.638Z,100788.81
2022-11-08T08:29:44.918Z,100789.72
2022-11-08T08:32:14.846Z,100797.44
2022-11-08T08:34:44.235Z,100784.34
2022-11-08T08:37:15.543Z,100789.59
2022-11-08T08:39:45.788Z,100791.91
2022-11-08T08:42:15.895Z,100785.56
2022-11-08T08:44:45.729Z,100785.75
2022-11-08T08:47:15.535Z,100787.06
2022-11-08T08:49:45.200Z,100783.34
2022-11-08T08:52:14.960Z,100773.41
2022-11-08T08:54:44.771Z,100777.00
2022-11-08T08:57:14.710Z,100776.19
2022-11-08T09:02:36.231Z,100767.69
2022-11-08T09:05:10.618Z,100774.69
2022-11-08T09:07:37.894Z,100767.66
2022-11-08T09:10:11.309Z,100781.91
2022-11-08T09:12:40.176Z,100771.28
2022-11-08T09:15:10.714Z,100774.19
2022-11-08T09:17:40.707Z,100777.78
2022-11-08T09:20:12.488Z,100778.91
2022-11-08T09:22:42.216Z,100777.94
2022-11-08T09:25:11.825Z,100776.94
2022-11-08T09:27:41.891Z,100777.56
2022-11-08T09:30:11.669Z,100769.97
2022-11-08T09:35:34.387Z,100778.41
2022-11-08T09:38:01.665Z,100778.13
2022-11-08T09:41:17.986Z,100778.66
2022-11-08T09:44:33.732Z,100782.22
2022-11-08T09:47:36.005Z,100774.53
2022-11-08T09:50:39.965Z,100770.28
2022-11-08T09:53:59.754Z,100765.34
2022-11-08T09:56:38.540Z,100756.50
2022-11-08T09:59:42.303Z,100760.94
2022-11-08T10:02:24.140Z,100760.31
2022-11-08T10:05:05.007Z,100761.28
2022-11-08T10:07:54.949Z,100758.78
2022-11-08T10:11:11.472Z,100754.25
2022-11-08T10:14:06.082Z,100745.03
2022-11-08T10:17:32.878Z,100748.19
2022-11-08T10:20:40.670Z,100754.09
2022-11-08T10:23:48.712Z,100750.69
2022-11-08T10:26:29.587Z,100749.66
2022-11-08T10:29:21.067Z,100741.16
2022-11-08T10:32:16.699Z,100740.09
2022-11-08T10:35:18.837Z,100739.50
2022-11-08T10:37:53.468Z,100737.75
2022-11-08T10:41:15.215Z,100732.72
2022-11-08T10:43:56.666Z,100727.75
2022-11-08T10:46:47.205Z,100728.06
2022-11-08T10:49:34.242Z,100732.84
2022-11-08T10:52:42.335Z,100730.88
2022-11-08T10:55:38.697Z,100722.16
2022-11-08T10:58:42.371Z,100727.78
2022-11-08T11:01:26.757Z,100721.63
2022-11-08T11:03:56.845Z,100721.03
2022-11-08T11:06:33.740Z,100721.28
2022-11-08T11:09:28.029Z,100709.53
2022-11-08T11:12:07.817Z,100716.63
2022-11-08T11:14:38.649Z,100710.47
2022-11-08T11:17:19.196Z,100708.94
2022-11-08T11:19:58.132Z,100720.34
2022-11-08T11:22:33.768Z,100710.84
2022-11-08T11:25:21.180Z,100706.75
2022-11-08T11:28:01.018Z,100707.09
2022-11-08T11:30:36.143Z,100689.88
2022-11-08T11:33:13.577Z,100702.31
2022-11-08T11:36:22.104Z,100696.75
2022-11-08T11:39:28.764Z,100704.06
2022-11-08T11:42:45.595Z,100691.72
2022-11-08T11:46:11.602Z,100685.78
2022-11-08T11:49:02.475Z,100690.97
2022-11-08T11:51:32.517Z,100686.78
2022-11-08T11:54:08.113Z,100675.47
2022-11-08T11:57:12.210Z,100682.09
2022-11-08T12:00:13.605Z,100676.47
2022-11-08T12:03:16.481Z,100673.97
2022-11-08T12:06:38.236Z,100675.50
2022-11-08T12:09:35.291Z,100666.72
2022-11-08T12:12:21.079Z,100654.53
2022-11-08T12:14:55.526Z,100656.00
2022-11-08T12:18:41.522Z,100653.34
2022-11-08T12:21:38.099Z,100634.59
2022-11-08T12:24:53.087Z,100641.59
2022-11-08T12:28:09.921Z,100634.59
2022-11-08T12:31:05.003Z,100636.28
2022-11-08T12:34:19.819Z,100628.16
2022-11-08T12:37:08.270Z,100628.00
2022-11-08T12:40:00.905Z,100623.13
2022-11-08T12:43:13.527Z,100624.78
2022-11-08T12:46:13.146Z,100625.81
2022-11-08T12:49:22.557Z,100622.03
2022-11-08T12:52:25.826Z,100619.19
2022-11-08T12:55:09.979Z,100623.94
2022-11-08T12:57:45.431Z,100620.25
2022-11-08T13:00:19.429Z,100615.19
2022-11-08T13:03:25.921Z,100615.66
2022-11-08T13:06:30.155Z,100606.72
2022-11-08T13:09:43.819Z,100593.44
2022-11-08T13:12:44.528Z,100593.81
2022-11-08T13:15:25.173Z,100593.53
2022-11-08T13:18:06.925Z,100594.44
2022-11-08T13:20:48.096Z,100579.47
2022-11-08T13:23:36.370Z,100581.72
2022-11-08T13:26:28.452Z,100573.13
2022-11-08T13:29:28.390Z,100564.72
2022-11-08T13:32:39.764Z,100566.91
2022-11-08T13:35:45.198Z,100555.16
2022-11-08T13:38:33.678Z,100547.06
2022-11-08T13:41:23.626Z,100555.44
2022-11-08T13:43:59.245Z,100567.31
2022-11-08T13:46:47.018Z,100575.16
2022-11-08T13:49:23.031Z,100573.63
2022-11-08T13:53:01.857Z,100586.03
2022-11-08T13:55:43.774Z,100589.97
2022-11-08T13:58:41.391Z,100579.41
2022-11-08T14:01:23.347Z,100588.28
2022-11-08T14:03:57.640Z,100580.53
2022-11-08T14:07:05.004Z,100583.94
2022-11-08T14:10:13.296Z,100575.66
2022-11-08T14:13:04.385Z,100580.31
2022-11-08T14:15:58.476Z,100580.56
2022-11-08T14:18:38.797Z,100566.84
2022-11-08T14:21:17.909Z,100558.69
2022-11-08T14:23:51.558Z,100552.66
2022-11-08T14:26:25.614Z,100556.34
2022-11-08T14:29:00.618Z,100548.94
2022-11-08T14:31:34.720Z,100549.84
2022-11-08T14:34:04.772Z,100548.03
2022-11-08T14:36:35.670Z,100550.34
2022-11-08T14:39:18.995Z,100543.91
2022-11-08T14:41:58.239Z,100541.00
2022-11-08T14:44:31.162Z,100544.06
2022-11-08T14:47:01.280Z,100537.53
2022-11-08T14:49:38.364Z,100539.63
2022-11-08T14:52:27.933Z,100544.88
2022-11-08T14:55:11.166Z,100539.41
2022-11-08T14:57:41.565Z,100530.31
2022-11-08T15:00:26.842Z,100518.94
2022-11-08T15:03:05.540Z,100516.84
2022-11-08T15:06:03.123Z,100521.88
2022-11-08T15:08:47.693Z,100521.06
2022-11-08T15:11:34.456Z,100522.09
2022-11-08T15:14:11.754Z,100520.56
2022-11-08T15:16:57.305Z,100517.63
2022-11-08T15:19:46.754Z,100514.50
2022-11-08T15:22:33.209Z,100504.38
2022-11-08T15:25:14.759Z,100507.13
2022-11-08T15:27:50.808Z,100497.59
2022-11-08T15:30:35.260Z,100512.91
2022-11-08T15:33:06.170Z,100501.50
2022-11-08T15:35:39.252Z,100504.28
2022-11-08T15:38:27.760Z,100502.06
2022-11-08T15:41:04.228Z,100495.88
2022-11-08T15:43:40.404Z,100500.16
2022-11-08T15:46:35.846Z,100491.75
2022-11-08T15:49:21.107Z,100488.47
2022-11-08T15:51:55.786Z,100486.88
2022-11-08T15:54:27.607Z,100493.78
2022-11-08T15:56:57.919Z,100491.56
2022-11-08T15:59:30.594Z,100490.06
2022-11-08T16:02:02.977Z,100480.63
2022-11-08T16:04:32.889Z,100476.97
2022-11-08T16:07:02.736Z,100484.56
2022-11-08T16:09:32.651Z,100484.28
2022-11-08T16:12:04.332Z,100480.09
2022-11-08T16:14:33.394Z,100483.22
2022-11-08T16:17:02.914Z,100485.38
2022-11-08T16:19:32.929Z,100479.09
2022-11-08T16:22:07.436Z,100477.50
2022-11-08T16:24:36.675Z,100478.53
2022-11-08T16:27:06.591Z,100481.16
2022-11-08T16:29:36.410Z,100484.34
2022-11-08T16:32:10.576Z,100489.41
2022-11-08T16:34:40.173Z,100489.78
2022-11-08T16:37:11.466Z,100483.28
2022-11-08T16:39:40.883Z,100486.59
2022-11-08T16:42:14.323Z,100490.38
2022-11-08T16:44:44.471Z,100480.16
2022-11-08T16:47:19.877Z,100475.72
2022-11-08T16:49:51.288Z,100475.97
2022-11-08T16:52:21.102Z,100474.13
2022-11-08T16:54:48.334Z,100480.44
2022-11-08T16:57:34.106Z,100482.44
2022-11-08T17:00:08.360Z,100479.75
2022-11-08T17:02:46.615Z,100479.16
2022-11-08T17:05:24.324Z,100472.72
2022-11-08T17:07:55.897Z,100484.84
2022-11-08T17:10:30.584Z,100482.13
2022-11-08T17:13:00.610Z,100480.50
2022-11-08T17:15:30.630Z,100473.84
2022-11-08T17:18:00.957Z,100482.19
2022-11-08T17:20:30.446Z,100483.00
2022-11-08T17:23:00.295Z,100478.72
2022-11-08T17:25:29.955Z,100476.63
2022-11-08T17:27:59.759Z,100476.63
2022-11-08T17:30:32.062Z,100478.13
2022-11-08T17:32:59.340Z,100476.63
2022-11-08T17:35:29.048Z,100477.03
2022-11-08T17:37:58.821Z,100476.09
2022-11-08T17:40:28.690Z,100475.47
2022-11-08T17:42:58.698Z,100469.84
2022-11-08T17:45:28.495Z,100466.19
2022-11-08T17:47:58.457Z,100470.03
2022-11-08T17:50:28.474Z,100475.47
2022-11-08T17:52:58.269Z,100473.31
2022-11-08T17:55:28.192Z,100476.41
2022-11-08T17:57:57.939Z,100479.19
2022-11-08T18:00:28.003Z,100467.81
2022-11-08T18:02:57.733Z,100479.50
2022-11-08T18:05:27.468Z,100472.91
2022-11-08T18:07:57.210Z,100483.06
2022-11-08T18:10:27.017Z,100487.91
2022-11-08T18:12:56.758Z,100486.72
2022-11-08T18:15:29.348Z,100483.94
2022-11-08T18:17:59.319Z,100484.72
2022-11-08T18:20:29.127Z,100491.09
2022-11-08T18:22:58.797Z,100491.75
2022-11-08T18:25:28.595Z,100485.03
2022-11-08T18:27:58.867Z,100484.00
2022-11-08T18:30:26.365Z,100490.78
2022-11-08T18:32:58.639Z,100491.88
2022-11-08T18:35:28.180Z,100482.41
2022-11-08T18:37:58.485Z,100489.41
2022-11-08T18:40:31.746Z,100482.44
2022-11-08T18:43:01.881Z,100480.28
2022-11-08T18:45:33.256Z,100481.44
2022-11-08T18:48:01.320Z,100489.47
2022-11-08T18:50:32.192Z,100479.03
2022-11-08T18:53:15.590Z,100482.69
2022-11-08T18:55:45.758Z,100466.16
2022-11-08T18:58:16.130Z,100467.94
2022-11-08T19:00:46.380Z,100467.59
2022-11-08T19:03:16.674Z,100463.41
2022-11-08T19:05:47.496Z,100460.50
2022-11-08T19:08:25.220Z,100458.19
2022-11-08T19:11:04.086Z,100458.41
2022-11-08T19:13:39.124Z,100463.34
2022-11-08T19:16:12.029Z,100469.53
2022-11-08T19:18:44.902Z,100475.63
2022-11-08T19:21:20.253Z,100470.63
2022-11-08T19:23:51.917Z,100469.75
2022-11-08T19:26:26.606Z,100472.19
2022-11-08T19:28:58.143Z,100474.44
2022-11-08T19:31:28.217Z,100474.28
2022-11-08T19:33:58.434Z,100476.81
2022-11-08T19:36:31.004Z,100481.09
2022-11-08T19:39:01.031Z,100482.25
2022-11-08T19:41:31.067Z,100476.38
2022-11-08T19:44:01.087Z,100472.00
2022-11-08T19:46:34.016Z,100478.91
2022-11-08T19:49:05.217Z,100480.59
2022-11-08T19:51:35.663Z,100476.22
2022-11-08T19:54:13.578Z,100482.41
2022-11-08T19:57:04.080Z,100484.75
2022-11-08T19:59:33.956Z,100474.34
2022-11-08T20:02:04.312Z,100485.84
2022-11-08T20:04:34.448Z,100488.56
2022-11-08T20:07:04.504Z,100483.69
2022-11-08T20:09:35.812Z,100480.44
2022-11-08T20:12:08.433Z,100487.06
2022-11-08T20:14:41.291Z,100488.56
2022-11-08T20:17:11.565Z,100492.53
2022-11-08T20:19:41.680Z,100476.22
2022-11-08T20:22:11.961Z,100483.22
2022-11-08T20:24:42.315Z,100479.00
2022-11-08T20:27:12.727Z,100477.53
2022-11-08T20:29:42.852Z,100475.25
2022-11-08T20:32:12.987Z,100479.03
2022-11-08T20:34:43.304Z,100466.13
2022-11-08T20:37:14.726Z,100479.38
2022-11-08T20:39:44.798Z,100481.19
2022-11-08T20:42:18.792Z,100477.75
2022-11-08T20:44:49.090Z,100479.88
2022-11-08T20:47:20.358Z,100481.00
2022-11-08T20:49:50.375Z,100482.00
2022-11-08T20:52:22.473Z,100481.81
2022-11-08T20:54:55.869Z,100477.91
2022-11-08T20:57:25.890Z,100485.91
2022-11-08T20:59:55.975Z,100480.69
2022-11-08T21:02:26.335Z,100484.94
2022-11-08T21:04:56.381Z,100477.75
2022-11-08T21:10:40.976Z,100488.72
2022-11-08T21:13:06.537Z,100489.53
2022-11-08T21:15:36.563Z,100482.97
2022-11-08T21:18:09.652Z,100485.09
2022-11-08T21:20:41.861Z,100482.69
2022-11-08T21:23:11.855Z,100480.22
2022-11-08T21:25:41.885Z,100490.16
2022-11-08T21:28:12.289Z,100487.88
2022-11-08T21:30:45.932Z,100480.53
2022-11-08T21:33:16.416Z,100475.97
2022-11-08T21:35:55.586Z,100471.72
2022-11-08T21:38:26.747Z,100481.03
2022-11-08T21:41:05.582Z,100480.38
2022-11-08T21:43:43.065Z,100471.91
2022-11-08T21:46:27.438Z,100474.69
2022-11-08T21:49:02.086Z,100472.53
2022-11-08T21:51:32.181Z,100469.13
2022-11-08T21:54:02.201Z,100466.13
2022-11-08T21:56:35.377Z,100464.69
2022-11-08T21:59:05.800Z,100465.94
2022-11-08T22:01:35.919Z,100469.34
2022-11-08T22:04:06.106Z,100467.91
2022-11-08T22:06:36.382Z,100455.53
2022-11-08T22:09:06.790Z,100453.56
2022-11-08T22:11:37.184Z,100458.13
2022-11-08T22:14:07.637Z,100464.84
2022-11-08T22:16:37.673Z,100463.34
2022-11-08T22:19:08.512Z,100468.06
2022-11-08T22:21:39.346Z,100463.84
2022-11-08T22:24:18.109Z,100461.91
2022-11-08T22:26:49.528Z,100467.78
2022-11-08T22:29:18.189Z,100471.34
2022-11-08T22:31:48.462Z,100473.78
2022-11-08T22:34:18.986Z,100468.72
2022-11-08T22:36:51.000Z,100472.78
2022-11-08T22:39:23.165Z,100475.41
2022-11-08T22:41:53.745Z,100467.06
2022-11-08T22:44:22.545Z,100466.44
2022-11-08T22:46:52.224Z,100470.00
2022-11-08T22:49:22.268Z,100468.38
2022-11-08T22:51:52.294Z,100469.84
2022-11-08T22:54:22.286Z,100472.28
2022-11-08T22:56:52.303Z,100463.81
2022-11-08T22:59:22.268Z,100461.34
2022-11-08T23:01:52.455Z,100463.81
2022-11-08T23:04:22.570Z,100462.66
2022-11-08T23:06:52.561Z,100459.38
2022-11-08T23:09:22.629Z,100454.50
2022-11-08T23:12:13.449Z,100461.19
2022-11-08T23:15:00.415Z,100464.50
2022-11-08T23:17:31.115Z,100461.56
2022-11-08T23:20:19.832Z,100466.97
2022-11-08T23:23:08.268Z,100463.19
2022-11-08T23:25:38.213Z,100460.59
2022-11-08T23:28:26.708Z,100469.53
2022-11-08T23:31:15.527Z,100462.50
2022-11-08T23:33:45.609Z,100467.59
2022-11-08T23:36:16.013Z,100468.34
2022-11-08T23:38:45.929Z,100469.53
2022-11-08T23:41:34.840Z,100473.59
2022-11-08T23:44:23.588Z,100470.69
2022-11-08T23:47:01.626Z,100474.91
2022-11-08T23:49:31.220Z,100473.31
2022-11-08T23:52:01.501Z,100473.00
2022-11-08T23:54:31.461Z,100481.50
2022-11-08T23:56:58.631Z,100479.88
2022-11-08T23:59:28.618Z,100479.03
